Pine Grove, PA (17963)

7:22 PM EST on December 21, 2014 (GMT -0500)
Swatara Twp | Change Station
CLOSE
Current Station
Personal Weather Station
Location: Jonestown, PA
Elevation: 536 ft
Nearby Weather Stations

Elev 536 ft 40.40 °N, 76.48 °W | Updated 2 minutes ago

Clear
Clear
27.1 °F
Feels Like 27 °F
N
1.0
Wind Variable Wind from SW
Gusts 2.0 mph

Today
High -- | Low -- °F
--% Chance of Precip.
Yesterday
High -- | Low -- °F
Precip. -- in
7:25 AM 4:41 PM
Waning Crescent, 0% visible
Pressure 30.36 in
Visibility 10.0 miles
Clouds Clear
Windchill 27 °F
Dew Point 22 °F
Humidity 81%
Rainfall 0.00 in
Snow Depth Not available.
UV 0 out of 12
Pollen .10 out of 12
Air Quality Not available.
Flu Activity Not available.
METAR KMUI 212358Z AUTO 25002KT 10SM CLR M03/M07 A3033 RMK AO2 SLP280 T10301067 10006 21035 52009

More Conditions Fewer Conditions

Pressure 30.36 in
Visibility 10.0 miles
Clouds Clear
Windchill 27 °F
Dew Point 22 °F
Humidity 81%
Rainfall 0.00 in
Snow Depth Not available.
UV 0 out of 12
Pollen .10 out of 12
Air Quality Not available.
Flu Activity Not available.
METAR KMUI 212358Z AUTO 25002KT 10SM CLR M03/M07 A3033 RMK AO2 SLP280 T10301067 10006 21035 52009

More Conditions Fewer Conditions

10-Day Weather Forecast

Almanac

Astronomy

Dec. 21, 2014 Rise Set
Actual Time
Civil Twilight
Nautical Twilight
Astronomical Twilight
Moon
Length of Visible Light
Length of Day
Tomorrow will be .
, % of the Moon is Illuminated

Today's Extremes

State Highs State Lows

Community

WunderPhotos

Upload Photos

1,779,510 photos uploaded!

WunderBlogs® & News

Nearby

Air Quality

  Air Quality AQ Index Pollutant
Not available.

Snow Depth

Station Depth Elevation

Earthquake Activity

City Distance Mag. Time & Date
Minimum magnitude displayed is 2.5.

Coastal Water Temperatures

Place Temperature

Nearby Weather Stations